createdAt,value
2019-02-28T00:01:07.553Z,69.70
2019-02-28T00:03:37.060Z,70.10
2019-02-28T00:06:11.735Z,70.20
2019-02-28T00:08:37.606Z,70.50
2019-02-28T00:11:07.035Z,70.50
2019-02-28T00:13:36.458Z,70.60
2019-02-28T00:16:05.888Z,70.50
2019-02-28T00:18:35.398Z,70.60
2019-02-28T00:21:06.989Z,70.70
2019-02-28T00:23:35.895Z,70.50
2019-02-28T00:26:05.319Z,70.40
2019-02-28T00:28:34.756Z,70.30
2019-02-28T00:31:04.165Z,70.20
2019-02-28T00:33:33.596Z,69.90
2019-02-28T00:36:03.092Z,69.70
2019-02-28T00:38:32.503Z,69.80
2019-02-28T00:41:01.952Z,69.80
2019-02-28T00:43:31.350Z,69.70
2019-02-28T00:46:00.796Z,69.90
2019-02-28T00:48:30.229Z,69.80
2019-02-28T00:50:59.684Z,69.70
2019-02-28T00:53:29.115Z,69.50
2019-02-28T00:55:58.566Z,69.50
2019-02-28T00:58:28.952Z,69.50
2019-02-28T01:00:59.078Z,69.60
2019-02-28T01:03:28.491Z,69.70
2019-02-28T01:05:57.939Z,69.80
2019-02-28T01:08:27.350Z,69.80
2019-02-28T01:10:56.833Z,69.50
2019-02-28T01:13:28.065Z,69.40
2019-02-28T01:15:57.317Z,69.40
2019-02-28T01:18:26.745Z,69.40
2019-02-28T01:20:56.190Z,69.10
2019-02-28T01:23:25.599Z,68.70
2019-02-28T01:25:55.039Z,68.80
2019-02-28T01:28:26.961Z,68.50
2019-02-28T01:30:55.620Z,68.60
2019-02-28T01:33:25.706Z,67.90
2019-02-28T01:35:55.186Z,68.00
2019-02-28T01:38:25.187Z,68.20
2019-02-28T01:40:54.664Z,68.00
2019-02-28T01:43:28.388Z,67.90
2019-02-28T01:45:55.329Z,67.90
2019-02-28T01:48:24.738Z,68.10
2019-02-28T01:50:54.283Z,67.70
2019-02-28T01:53:23.730Z,67.70
2019-02-28T01:55:53.177Z,67.50
2019-02-28T01:58:22.600Z,67.60
2019-02-28T02:00:53.581Z,67.90
2019-02-28T02:03:23.335Z,67.90
2019-02-28T02:05:52.771Z,67.90
2019-02-28T02:08:22.318Z,67.80
2019-02-28T02:10:54.764Z,68.00
2019-02-28T02:13:22.831Z,68.00
2019-02-28T02:15:52.276Z,68.00
2019-02-28T02:18:21.693Z,68.00
2019-02-28T02:20:51.162Z,68.20
2019-02-28T02:23:20.600Z,68.50
2019-02-28T02:25:50.021Z,68.20
2019-02-28T02:28:19.455Z,68.40
2019-02-28T02:30:50.885Z,68.60
2019-02-28T02:33:19.931Z,68.30
2019-02-28T02:35:49.484Z,68.50
2019-02-28T02:38:18.896Z,68.30
2019-02-28T02:40:48.343Z,68.30
2019-02-28T02:43:21.930Z,68.30
2019-02-28T02:45:48.885Z,68.40
2019-02-28T02:48:18.319Z,68.50
2019-02-28T02:50:47.723Z,69.30
2019-02-28T02:53:17.268Z,68.80
2019-02-28T02:55:46.763Z,68.80
2019-02-28T02:58:16.224Z,69.10
2019-02-28T03:00:49.321Z,69.00
2019-02-28T03:03:16.713Z,68.90
2019-02-28T03:05:46.164Z,69.10
2019-02-28T03:08:15.826Z,69.00
2019-02-28T03:10:45.244Z,69.10
2019-02-28T03:13:14.674Z,69.10
2019-02-28T03:15:44.093Z,69.30
2019-02-28T03:18:13.584Z,69.60
2019-02-28T03:20:43.042Z,69.20
2019-02-28T03:23:12.493Z,68.80
2019-02-28T03:25:41.902Z,68.90
2019-02-28T03:28:13.151Z,68.90
2019-02-28T03:30:42.385Z,69.00
2019-02-28T03:33:23.427Z,69.00
2019-02-28T03:35:44.110Z,69.30
2019-02-28T03:38:14.142Z,69.40
2019-02-28T03:40:43.567Z,69.30
2019-02-28T03:43:13.020Z,69.60
2019-02-28T03:45:42.477Z,69.40
2019-02-28T03:48:11.902Z,69.70
2019-02-28T03:50:41.332Z,69.70
2019-02-28T03:53:10.779Z,69.60
2019-02-28T03:55:41.507Z,69.50
2019-02-28T03:58:11.072Z,69.50
2019-02-28T04:00:40.500Z,69.50
2019-02-28T04:03:09.963Z,69.80
2019-02-28T04:05:39.372Z,70.10
2019-02-28T04:08:08.827Z,69.80
2019-02-28T04:10:38.248Z,69.60
2019-02-28T04:13:07.671Z,69.60
2019-02-28T04:15:37.111Z,69.70
2019-02-28T04:18:07.577Z,69.40
2019-02-28T04:20:37.970Z,69.50
2019-02-28T04:23:07.748Z,69.30
2019-02-28T04:25:37.201Z,69.80
2019-02-28T04:28:06.636Z,69.50
2019-02-28T04:30:42.659Z,69.80
2019-02-28T04:33:07.138Z,70.00
2019-02-28T04:35:36.555Z,70.20
2019-02-28T04:38:06.076Z,70.20
2019-02-28T04:40:35.611Z,70.30
2019-02-28T04:43:07.214Z,70.30
2019-02-28T04:45:36.079Z,70.10
2019-02-28T04:48:05.513Z,69.90
2019-02-28T04:50:34.929Z,70.00
2019-02-28T04:53:04.370Z,69.70
2019-02-28T04:55:34.212Z,69.40
2019-02-28T04:58:04.834Z,70.10
2019-02-28T05:00:34.326Z,69.30
2019-02-28T05:03:03.738Z,69.10
2019-02-28T05:05:33.177Z,68.80
2019-02-28T05:08:05.734Z,68.90
2019-02-28T05:10:33.631Z,68.70
2019-02-28T05:13:03.049Z,68.50
2019-02-28T05:15:37.192Z,68.10
2019-02-28T05:18:03.536Z,67.70
2019-02-28T05:20:32.979Z,67.80
2019-02-28T05:23:02.969Z,68.50
2019-02-28T05:25:32.452Z,68.00
2019-02-28T05:28:01.891Z,68.10
2019-02-28T05:30:31.328Z,68.20
2019-02-28T05:33:00.756Z,68.00
2019-02-28T05:35:30.192Z,67.80
2019-02-28T05:37:59.608Z,67.40
2019-02-28T05:40:29.056Z,68.00
2019-02-28T05:42:59.189Z,68.10
2019-02-28T05:45:28.719Z,68.10
2019-02-28T05:47:58.139Z,68.10
2019-02-28T05:50:27.599Z,67.90
2019-02-28T05:52:57.028Z,67.70
2019-02-28T05:55:26.511Z,67.40
2019-02-28T05:57:55.905Z,66.90
2019-02-28T06:00:25.715Z,67.10
2019-02-28T06:02:58.072Z,67.20
2019-02-28T06:05:26.227Z,66.80
2019-02-28T06:07:55.642Z,66.10
2019-02-28T06:10:25.167Z,66.30
2019-02-28T06:12:54.574Z,66.60
2019-02-28T06:15:24.079Z,66.50
2019-02-28T06:17:54.963Z,66.30
2019-02-28T06:20:24.629Z,65.90
2019-02-28T06:22:53.980Z,65.90
2019-02-28T06:25:25.562Z,65.90
2019-02-28T06:27:54.677Z,65.70
2019-02-28T06:30:24.176Z,65.70
2019-02-28T06:32:57.853Z,65.70
2019-02-28T06:35:24.750Z,65.60
2019-02-28T06:37:54.176Z,65.60
2019-02-28T06:40:23.644Z,65.30
2019-02-28T06:42:53.045Z,65.40
2019-02-28T06:45:22.508Z,65.50
2019-02-28T06:47:51.947Z,66.60
2019-02-28T06:50:21.403Z,66.20
2019-02-28T06:52:50.831Z,67.10
2019-02-28T06:55:27.428Z,66.50
2019-02-28T06:57:58.884Z,67.10
2019-02-28T07:00:27.954Z,67.20
2019-02-28T07:02:57.397Z,67.30
2019-02-28T07:05:26.823Z,67.50
2019-02-28T07:07:56.266Z,67.50
2019-02-28T07:10:25.701Z,66.90
2019-02-28T07:12:56.058Z,67.00
2019-02-28T07:15:25.500Z,67.20
2019-02-28T07:17:54.944Z,66.90
2019-02-28T07:20:24.384Z,67.10
2019-02-28T07:22:55.643Z,67.10
2019-02-28T07:25:24.869Z,66.80
2019-02-28T07:27:54.369Z,66.40
2019-02-28T07:30:23.768Z,66.40
2019-02-28T07:32:53.214Z,66.80
2019-02-28T07:35:22.641Z,66.50
2019-02-28T07:37:54.409Z,66.40
2019-02-28T07:40:23.136Z,66.30
2019-02-28T07:42:52.575Z,66.00
2019-02-28T07:45:22.007Z,65.90
2019-02-28T07:47:52.657Z,66.00
2019-02-28T07:50:22.449Z,66.30
2019-02-28T07:52:53.182Z,66.40
2019-02-28T07:55:22.937Z,66.80
2019-02-28T07:57:56.273Z,66.10
2019-02-28T08:00:24.605Z,65.60
2019-02-28T08:02:54.035Z,65.30
2019-02-28T08:05:30.929Z,65.00
2019-02-28T08:07:59.028Z,65.40
2019-02-28T08:10:33.206Z,65.40
2019-02-28T08:13:03.303Z,65.40
2019-02-28T08:15:33.652Z,65.10
2019-02-28T08:18:03.075Z,64.90
2019-02-28T08:20:34.024Z,65.00
2019-02-28T08:23:03.580Z,65.30
2019-02-28T08:25:32.999Z,66.00
2019-02-28T08:28:02.433Z,66.40
2019-02-28T08:30:34.055Z,66.50
2019-02-28T08:33:03.511Z,67.90
2019-02-28T08:35:34.934Z,68.10
2019-02-28T08:38:04.004Z,68.00
2019-02-28T08:40:33.434Z,68.70
2019-02-28T08:43:02.886Z,68.60
2019-02-28T08:45:33.482Z,68.70
2019-02-28T08:48:03.395Z,68.90
2019-02-28T08:50:32.803Z,70.30
2019-02-28T08:53:05.814Z,70.70
2019-02-28T08:55:38.498Z,71.20
2019-02-28T08:58:06.790Z,72.00
2019-02-28T09:00:37.715Z,72.30
2019-02-28T09:03:07.221Z,72.80
2019-02-28T09:05:36.642Z,73.00
2019-02-28T09:08:06.124Z,72.90
2019-02-28T09:10:37.360Z,73.00
2019-02-28T09:13:08.607Z,73.50
2019-02-28T09:15:37.994Z,73.70
2019-02-28T09:18:07.475Z,75.40
2019-02-28T09:20:37.317Z,76.00
2019-02-28T09:23:06.737Z,77.20
2019-02-28T09:25:36.139Z,77.70
2019-02-28T09:28:05.679Z,79.00
2019-02-28T09:30:42.824Z,80.40
2019-02-28T09:33:12.273Z,80.60
2019-02-28T09:35:45.234Z,80.60
2019-02-28T09:38:13.730Z,80.20
2019-02-28T09:40:43.410Z,80.40
2019-02-28T09:43:12.839Z,79.70
2019-02-28T09:45:42.264Z,79.40
2019-02-28T09:48:11.720Z,79.60
2019-02-28T09:50:41.132Z,79.50
2019-02-28T09:53:15.561Z,79.60
2019-02-28T09:55:41.724Z,80.50
2019-02-28T09:58:11.199Z,80.70
2019-02-28T10:00:43.247Z,80.70
2019-02-28T10:03:11.664Z,81.20
2019-02-28T10:05:42.439Z,81.40
2019-02-28T10:08:12.216Z,81.10
2019-02-28T10:10:41.768Z,81.20
2019-02-28T10:13:11.192Z,81.20
2019-02-28T10:15:41.698Z,81.50
2019-02-28T10:18:11.791Z,81.70
2019-02-28T10:20:41.717Z,82.30
2019-02-28T10:23:11.207Z,82.70
2019-02-28T10:25:43.511Z,83.30
2019-02-28T10:28:11.775Z,83.00
2019-02-28T10:30:41.181Z,83.40
2019-02-28T10:33:10.614Z,83.50
2019-02-28T10:35:40.056Z,83.20
2019-02-28T10:38:09.484Z,82.90
2019-02-28T10:40:38.946Z,82.80
2019-02-28T10:43:08.363Z,82.00
2019-02-28T10:45:41.271Z,81.00
2019-02-28T10:48:08.865Z,80.00
2019-02-28T10:50:39.000Z,79.40
2019-02-28T10:53:08.441Z,78.50
2019-02-28T10:55:37.978Z,78.00
2019-02-28T10:58:07.401Z,78.00
2019-02-28T11:00:40.211Z,77.90
2019-02-28T11:03:09.637Z,78.10
2019-02-28T11:05:41.688Z,77.80
2019-02-28T11:08:16.405Z,77.70
2019-02-28T11:10:46.371Z,77.80
2019-02-28T11:13:18.596Z,79.70
2019-02-28T11:15:49.260Z,79.80
2019-02-28T11:18:19.112Z,78.10
2019-02-28T11:20:48.495Z,77.80
2019-02-28T11:23:17.925Z,77.50
2019-02-28T11:25:47.365Z,77.30
2019-02-28T11:28:17.242Z,76.60
2019-02-28T11:30:46.820Z,75.70
2019-02-28T11:33:17.616Z,75.20
2019-02-28T11:35:47.088Z,74.40
2019-02-28T11:38:20.391Z,74.00
2019-02-28T11:40:56.723Z,73.30
2019-02-28T11:43:18.616Z,72.50
2019-02-28T11:45:48.211Z,72.70
2019-02-28T11:48:23.808Z,72.30
2019-02-28T11:50:53.223Z,72.20
2019-02-28T11:53:22.647Z,72.10
2019-02-28T11:55:53.252Z,72.20
2019-02-28T11:58:23.182Z,71.90
2019-02-28T12:00:52.623Z,70.90
2019-02-28T12:03:22.044Z,70.40
2019-02-28T12:05:51.470Z,69.90
2019-02-28T12:08:22.313Z,70.00
2019-02-28T12:10:51.962Z,70.00
2019-02-28T12:13:21.345Z,69.60
2019-02-28T12:15:52.394Z,69.70
2019-02-28T12:18:21.822Z,69.90
2019-02-28T12:20:51.260Z,69.50
2019-02-28T12:23:23.511Z,69.90
2019-02-28T12:25:51.728Z,69.30
2019-02-28T12:28:21.177Z,69.70
2019-02-28T12:30:50.605Z,70.00
2019-02-28T12:33:23.170Z,70.50
2019-02-28T12:35:51.228Z,71.00
2019-02-28T12:38:21.075Z,71.20
2019-02-28T12:40:50.554Z,70.70
2019-02-28T12:43:19.957Z,71.10
2019-02-28T12:45:49.390Z,71.80
2019-02-28T12:48:18.812Z,71.80
2019-02-28T12:50:48.223Z,73.00
2019-02-28T12:53:17.659Z,74.20
2019-02-28T12:55:47.062Z,74.70
2019-02-28T12:58:16.483Z,73.90
2019-02-28T13:00:46.898Z,72.70
2019-02-28T13:03:20.298Z,71.40
2019-02-28T13:05:49.269Z,71.40
2019-02-28T13:08:18.430Z,70.00
2019-02-28T13:10:47.869Z,68.90
2019-02-28T13:13:17.311Z,68.70
2019-02-28T13:15:46.869Z,67.30
2019-02-28T13:18:16.263Z,66.90
2019-02-28T13:20:45.761Z,67.00
2019-02-28T13:23:17.073Z,66.70
2019-02-28T13:25:46.361Z,66.70
2019-02-28T13:28:17.984Z,66.90
2019-02-28T13:30:50.392Z,66.10
2019-02-28T13:33:17.932Z,66.60
2019-02-28T13:35:47.809Z,66.20
2019-02-28T13:38:19.181Z,66.70
2019-02-28T13:40:48.738Z,67.10
2019-02-28T13:43:20.929Z,66.30
2019-02-28T13:45:50.980Z,66.60
2019-02-28T13:48:25.938Z,66.60
2019-02-28T13:50:51.406Z,67.50
2019-02-28T13:53:23.235Z,67.40
2019-02-28T13:55:52.788Z,68.70
2019-02-28T13:58:23.146Z,69.20
2019-02-28T14:00:52.588Z,69.20
2019-02-28T14:03:22.052Z,68.40
2019-02-28T14:05:51.472Z,67.70
2019-02-28T14:08:20.923Z,67.20
2019-02-28T14:10:50.330Z,67.20
2019-02-28T14:13:19.786Z,66.90
2019-02-28T14:15:52.365Z,66.70
2019-02-28T14:18:21.949Z,67.10
2019-02-28T14:20:51.399Z,67.30
2019-02-28T14:23:21.648Z,67.50
2019-02-28T14:25:51.503Z,67.90
2019-02-28T14:28:20.934Z,68.00
2019-02-28T14:30:50.422Z,67.90
2019-02-28T14:33:20.743Z,67.40
2019-02-28T14:35:50.472Z,67.50
2019-02-28T14:38:19.884Z,68.30
2019-02-28T14:40:49.657Z,70.00
2019-02-28T14:43:20.763Z,71.00
2019-02-28T14:45:50.231Z,70.50
2019-02-28T14:48:20.504Z,70.40
2019-02-28T14:50:50.588Z,70.60
2019-02-28T14:53:21.311Z,69.80
2019-02-28T14:55:50.877Z,70.20
2019-02-28T14:58:21.306Z,69.90
2019-02-28T15:00:53.114Z,70.20
2019-02-28T15:03:22.909Z,70.50
2019-02-28T15:05:55.424Z,71.50
2019-02-28T15:08:23.695Z,71.50
2019-02-28T15:10:54.759Z,70.10
2019-02-28T15:13:24.349Z,70.00
2019-02-28T15:15:54.396Z,69.40
2019-02-28T15:18:25.885Z,69.70
2019-02-28T15:20:57.468Z,68.30
2019-02-28T15:23:26.958Z,68.80
2019-02-28T15:25:56.583Z,68.30
2019-02-28T15:28:26.407Z,68.40
2019-02-28T15:30:55.818Z,67.70
2019-02-28T15:33:27.482Z,67.40
2019-02-28T15:35:56.619Z,67.60
2019-02-28T15:38:28.301Z,67.70
2019-02-28T15:40:59.552Z,67.30
2019-02-28T15:43:30.638Z,67.60
2019-02-28T15:46:00.069Z,67.20
2019-02-28T15:48:31.397Z,66.90
2019-02-28T15:51:03.721Z,66.20
2019-02-28T15:53:33.664Z,66.20
2019-02-28T15:56:12.714Z,66.30
2019-02-28T15:58:37.625Z,66.60
2019-02-28T16:01:06.869Z,66.20
2019-02-28T16:03:36.306Z,66.50
2019-02-28T16:06:05.707Z,67.60
2019-02-28T16:08:35.131Z,68.00
2019-02-28T16:11:06.279Z,68.30
2019-02-28T16:13:35.580Z,68.10
2019-02-28T16:16:05.059Z,69.00
2019-02-28T16:18:34.478Z,69.40
2019-02-28T16:21:07.135Z,69.20
2019-02-28T16:23:35.313Z,69.50
2019-02-28T16:26:05.005Z,69.00
2019-02-28T16:28:34.610Z,69.40
2019-02-28T16:31:06.335Z,70.00
2019-02-28T16:33:37.098Z,71.60
2019-02-28T16:36:07.555Z,74.70
2019-02-28T16:38:38.092Z,75.90
2019-02-28T16:41:09.256Z,76.00
2019-02-28T16:43:38.819Z,77.30
2019-02-28T16:46:12.437Z,77.50
2019-02-28T16:48:44.480Z,78.20
2019-02-28T16:51:15.617Z,80.00
2019-02-28T16:53:48.013Z,80.00
2019-02-28T16:56:16.246Z,81.10
2019-02-28T16:58:46.347Z,80.60
2019-02-28T17:01:20.579Z,81.40
2019-02-28T17:03:52.222Z,82.30
2019-02-28T17:06:23.146Z,82.80
2019-02-28T17:08:56.001Z,84.10
2019-02-28T17:11:27.315Z,82.80
2019-02-28T17:14:03.047Z,82.50
2019-02-28T17:16:38.050Z,82.80
2019-02-28T17:19:08.557Z,83.00
2019-02-28T17:21:38.292Z,82.80
2019-02-28T17:24:12.194Z,82.80
2019-02-28T17:26:44.821Z,82.80
2019-02-28T17:29:16.037Z,82.20
2019-02-28T17:31:49.209Z,82.70
2019-02-28T17:34:23.995Z,81.80
2019-02-28T17:36:51.397Z,82.10
2019-02-28T17:39:20.799Z,81.40
2019-02-28T17:41:50.330Z,82.10
2019-02-28T17:44:33.893Z,82.70
2019-02-28T17:47:10.828Z,82.40
2019-02-28T17:50:16.514Z,82.20
2019-02-28T17:52:54.747Z,82.90
2019-02-28T17:55:55.782Z,84.10
2019-02-28T17:58:44.967Z,84.50
2019-02-28T18:01:29.881Z,84.30
2019-02-28T18:04:24.116Z,84.80
2019-02-28T18:07:10.640Z,85.20
2019-02-28T18:09:55.759Z,85.00
2019-02-28T18:12:31.032Z,85.50
2019-02-28T18:15:05.628Z,85.00
2019-02-28T18:17:55.690Z,84.70
2019-02-28T18:20:33.983Z,84.60
2019-02-28T18:23:32.486Z,84.70
2019-02-28T18:26:38.676Z,84.70
2019-02-28T18:29:06.455Z,84.40
2019-02-28T18:31:35.898Z,84.30
2019-02-28T18:34:05.503Z,85.00
2019-02-28T18:36:34.929Z,84.70
2019-02-28T18:39:08.058Z,84.70
2019-02-28T18:41:38.988Z,84.40
2019-02-28T18:44:09.708Z,84.70
2019-02-28T18:46:39.154Z,84.20
2019-02-28T18:49:08.860Z,84.60
2019-02-28T18:51:38.253Z,84.80
2019-02-28T18:54:07.671Z,84.40
2019-02-28T18:56:37.127Z,83.70
2019-02-28T18:59:06.558Z,84.00
2019-02-28T19:01:36.027Z,83.70
2019-02-28T19:04:05.411Z,84.30
2019-02-28T19:06:34.843Z,84.90
2019-02-28T19:09:07.786Z,84.50
2019-02-28T19:11:37.217Z,84.50
2019-02-28T19:14:06.870Z,84.20
2019-02-28T19:16:36.412Z,84.60
2019-02-28T19:19:05.967Z,83.80
2019-02-28T19:21:35.527Z,83.40
2019-02-28T19:24:05.144Z,83.80
2019-02-28T19:26:36.359Z,84.00
2019-02-28T19:29:05.996Z,83.90
2019-02-28T19:31:35.520Z,84.40
2019-02-28T19:34:05.118Z,85.30
2019-02-28T19:36:34.634Z,86.20
2019-02-28T19:39:05.118Z,86.00
2019-02-28T19:41:36.498Z,86.10
2019-02-28T19:44:11.676Z,85.90
2019-02-28T19:46:41.140Z,86.60
2019-02-28T19:49:10.711Z,87.10
2019-02-28T19:51:40.431Z,86.20
2019-02-28T19:54:09.992Z,86.30
2019-02-28T19:56:39.428Z,86.30
2019-02-28T19:59:08.898Z,86.30
2019-02-28T20:01:38.331Z,86.40
2019-02-28T20:04:07.762Z,86.40
2019-02-28T20:06:37.208Z,86.60
2019-02-28T20:09:08.245Z,86.70
2019-02-28T20:11:37.688Z,86.10
2019-02-28T20:14:07.128Z,85.40
2019-02-28T20:16:36.559Z,85.60
2019-02-28T20:19:06.055Z,84.60
2019-02-28T20:21:35.481Z,84.60
2019-02-28T20:24:06.006Z,85.00
2019-02-28T20:26:35.431Z,84.70
2019-02-28T20:29:05.563Z,84.40
2019-02-28T20:31:34.980Z,84.50
2019-02-28T20:34:04.501Z,84.80
2019-02-28T20:36:33.940Z,85.30
2019-02-28T20:39:04.967Z,85.50
2019-02-28T20:41:34.395Z,84.90
2019-02-28T20:44:03.836Z,84.70
2019-02-28T20:46:33.281Z,84.60
2019-02-28T20:49:02.694Z,83.80
2019-02-28T20:51:32.205Z,84.30
2019-02-28T20:54:01.616Z,83.80
2019-02-28T20:56:31.078Z,83.80
2019-02-28T20:59:00.536Z,84.20
2019-02-28T21:01:29.987Z,84.90
2019-02-28T21:03:59.458Z,85.00
2019-02-28T21:06:28.871Z,85.60
2019-02-28T21:08:58.349Z,85.00
2019-02-28T21:11:27.748Z,84.80
2019-02-28T21:13:57.186Z,85.20
2019-02-28T21:16:26.595Z,84.90
2019-02-28T21:18:56.043Z,84.70
2019-02-28T21:21:25.492Z,84.80
2019-02-28T21:23:56.548Z,84.30
2019-02-28T21:26:25.972Z,84.30
2019-02-28T21:28:55.401Z,84.20
2019-02-28T21:31:25.559Z,83.70
2019-02-28T21:33:55.042Z,84.80
2019-02-28T21:36:24.455Z,84.80
2019-02-28T21:38:53.923Z,85.00
2019-02-28T21:41:23.562Z,84.40
2019-02-28T21:43:53.274Z,84.20
2019-02-28T21:46:23.784Z,84.50
2019-02-28T21:48:53.320Z,84.50
2019-02-28T21:51:22.796Z,84.80
2019-02-28T21:53:52.264Z,84.40
2019-02-28T21:56:21.715Z,84.50
2019-02-28T21:58:51.265Z,84.80
2019-02-28T22:01:21.578Z,84.50
2019-02-28T22:03:51.043Z,84.20
2019-02-28T22:06:20.500Z,84.80
2019-02-28T22:08:49.989Z,84.60
2019-02-28T22:11:19.389Z,84.50
2019-02-28T22:13:48.807Z,85.60
2019-02-28T22:16:18.241Z,86.40
2019-02-28T22:18:47.629Z,86.20
2019-02-28T22:21:17.046Z,86.70
2019-02-28T22:23:46.475Z,86.50
2019-02-28T22:26:15.892Z,86.70
2019-02-28T22:28:45.304Z,86.50
2019-02-28T22:31:19.625Z,86.80
2019-02-28T22:33:53.353Z,86.50
2019-02-28T22:36:25.116Z,86.40
2019-02-28T22:38:54.642Z,87.00
2019-02-28T22:41:24.082Z,86.90
2019-02-28T22:43:53.535Z,86.90
2019-02-28T22:46:22.963Z,87.30
2019-02-28T22:48:52.402Z,87.30
2019-02-28T22:51:21.825Z,87.10
2019-02-28T22:53:51.240Z,87.40
2019-02-28T22:56:20.696Z,87.60
2019-02-28T22:58:51.911Z,87.80
2019-02-28T23:01:24.261Z,87.40
2019-02-28T23:03:53.664Z,87.80
2019-02-28T23:06:23.094Z,87.80
2019-02-28T23:08:52.548Z,87.90
2019-02-28T23:11:22.014Z,88.30
2019-02-28T23:13:51.498Z,87.40
2019-02-28T23:16:20.940Z,87.10
2019-02-28T23:18:50.402Z,86.90
2019-02-28T23:21:19.836Z,86.80
2019-02-28T23:23:49.253Z,86.40
2019-02-28T23:26:21.939Z,85.70
2019-02-28T23:28:57.295Z,86.10
2019-02-28T23:31:55.496Z,86.10
2019-02-28T23:34:34.187Z,86.00
2019-02-28T23:37:03.623Z,87.50
2019-02-28T23:39:33.039Z,87.30
2019-02-28T23:42:02.523Z,87.20
2019-02-28T23:44:31.933Z,88.10
2019-02-28T23:47:01.396Z,87.90
2019-02-28T23:49:30.807Z,89.00
2019-02-28T23:52:00.271Z,88.60
2019-02-28T23:54:29.643Z,88.30
2019-02-28T23:56:59.149Z,88.70
2019-02-28T23:59:28.579Z,88.40
